createdAt,value
2023-01-01T00:00:30.958Z,40.63
2023-01-01T00:05:43.011Z,53.10
2023-01-01T00:10:49.259Z,67.53
2023-01-01T00:15:55.555Z,61.05
2023-01-01T00:21:07.713Z,65.10
2023-01-01T00:26:18.766Z,70.82
2023-01-01T00:31:25.082Z,66.20
2023-01-01T00:36:32.714Z,57.40
2023-01-01T00:41:38.841Z,36.08
2023-01-01T00:46:45.388Z,41.90
2023-01-01T00:51:51.572Z,67.05
2023-01-01T00:56:59.217Z,56.28
2023-01-01T01:02:05.244Z,55.30
2023-01-01T01:07:11.670Z,42.22
2023-01-01T01:12:19.002Z,52.45
2023-01-01T01:17:25.487Z,38.35
2023-01-01T01:22:31.302Z,40.92
2023-01-01T01:27:37.681Z,37.95
2023-01-01T01:32:43.656Z,36.20
2023-01-01T01:37:50.315Z,36.83
2023-01-01T01:42:56.668Z,31.92
2023-01-01T01:48:03.192Z,23.88
2023-01-01T01:58:15.636Z,20.00
2023-01-01T02:03:30.867Z,13.73
2023-01-01T02:08:37.889Z,30.25
2023-01-01T02:13:44.519Z,26.60
2023-01-01T02:24:02.121Z,23.90
2023-01-01T02:29:08.472Z,17.75
2023-01-01T02:34:15.677Z,26.17
2023-01-01T02:39:23.910Z,22.02
2023-01-01T02:44:31.398Z,30.25
2023-01-01T02:49:40.460Z,21.92
2023-01-01T02:55:10.674Z,41.30
2023-01-01T03:00:25.930Z,21.58
2023-01-01T03:05:33.325Z,27.48
2023-01-01T03:10:49.877Z,26.48
2023-01-01T03:16:05.626Z,41.17
2023-01-01T03:26:23.080Z,43.38
2023-01-01T03:31:29.902Z,53.45
2023-01-01T03:36:42.085Z,44.40
2023-01-01T03:41:52.319Z,32.47
2023-01-01T03:46:58.623Z,23.10
2023-01-01T03:52:04.621Z,43.78
2023-01-01T03:57:14.229Z,27.92
2023-01-01T04:02:22.818Z,31.55
2023-01-01T04:07:29.266Z,33.42
2023-01-01T04:12:35.429Z,38.00
2023-01-01T04:22:48.325Z,34.70
2023-01-01T04:27:54.820Z,39.20
2023-01-01T04:38:06.691Z,39.22
2023-01-01T04:48:19.070Z,31.90
2023-01-01T04:53:26.092Z,36.10
2023-01-01T04:58:36.104Z,36.90
2023-01-01T05:03:42.676Z,20.08
2023-01-01T05:13:56.818Z,35.42
2023-01-01T05:19:03.677Z,37.55
2023-01-01T05:24:12.027Z,17.73
2023-01-01T05:29:18.784Z,30.10
2023-01-01T05:39:35.567Z,25.80
2023-01-01T05:44:48.338Z,32.78
2023-01-01T05:49:56.605Z,31.65
2023-01-01T05:55:05.203Z,34.42
2023-01-01T06:00:12.303Z,32.80
2023-01-01T06:05:22.050Z,35.05
2023-01-01T06:10:28.970Z,25.60
2023-01-01T06:15:43.238Z,33.05
2023-01-01T06:20:51.674Z,32.40
2023-01-01T06:25:58.195Z,37.60
2023-01-01T06:31:09.310Z,37.30
2023-01-01T06:36:18.039Z,35.55
2023-01-01T06:41:26.690Z,34.90
2023-01-01T06:46:35.694Z,28.75
2023-01-01T06:51:45.307Z,31.88
2023-01-01T06:56:51.634Z,40.60
2023-01-01T07:02:02.220Z,33.25
2023-01-01T07:07:09.495Z,36.53
2023-01-01T07:12:16.750Z,34.38
2023-01-01T07:17:23.117Z,33.63
2023-01-01T07:22:29.443Z,34.70
2023-01-01T07:32:41.564Z,28.90
2023-01-01T07:37:47.878Z,31.02
2023-01-01T07:42:54.474Z,29.75
2023-01-01T07:48:01.931Z,29.55
2023-01-01T07:53:08.750Z,28.67
2023-01-01T07:58:15.837Z,22.27
2023-01-01T08:03:21.928Z,29.23
2023-01-01T08:08:28.435Z,28.05
2023-01-01T08:13:38.271Z,30.67
2023-01-01T08:18:49.926Z,31.17
2023-01-01T08:23:56.132Z,28.13
2023-01-01T08:29:02.574Z,24.67
2023-01-01T08:34:09.238Z,28.90
2023-01-01T08:44:22.274Z,28.23
2023-01-01T08:49:28.454Z,27.25
2023-01-01T08:54:34.786Z,27.48
2023-01-01T08:59:41.085Z,26.95
2023-01-01T09:04:47.412Z,25.65
2023-01-01T09:09:53.711Z,27.95
2023-01-01T09:15:00.159Z,28.70
2023-01-01T09:25:12.424Z,31.52
2023-01-01T09:30:19.123Z,30.20
2023-01-01T09:35:25.327Z,31.55
2023-01-01T09:40:35.922Z,32.10
2023-01-01T09:46:02.209Z,31.98
2023-01-01T09:51:10.703Z,35.87
2023-01-01T09:56:23.553Z,38.15
2023-01-01T10:01:47.129Z,41.47
2023-01-01T10:07:03.673Z,33.30
2023-01-01T10:12:14.869Z,36.97
2023-01-01T10:17:21.163Z,39.13
2023-01-01T10:22:34.433Z,37.63
2023-01-01T10:28:01.300Z,40.03
2023-01-01T10:33:11.667Z,38.47
2023-01-01T10:38:27.654Z,37.97
2023-01-01T10:43:33.900Z,42.17
2023-01-01T10:48:40.278Z,39.33
2023-01-01T10:53:47.516Z,40.67
2023-01-01T10:59:00.578Z,44.95
2023-01-01T11:04:07.595Z,40.38
2023-01-01T11:09:27.386Z,43.80
2023-01-01T11:14:41.342Z,39.80
2023-01-01T11:19:54.601Z,44.63
2023-01-01T11:25:04.797Z,45.90
2023-01-01T11:30:22.908Z,44.25
2023-01-01T11:35:30.684Z,53.40
2023-01-01T11:40:40.713Z,52.95
2023-01-01T11:45:46.919Z,57.15
2023-01-01T11:50:58.750Z,55.70
2023-01-01T11:56:13.845Z,61.47
2023-01-01T12:01:29.767Z,80.43
2023-01-01T12:06:41.760Z,71.10
2023-01-01T12:11:55.535Z,65.72
2023-01-01T12:17:02.355Z,70.63
2023-01-01T12:22:15.525Z,81.70
2023-01-01T12:27:46.155Z,81.32
2023-01-01T12:33:11.028Z,74.80
2023-01-01T12:38:41.496Z,81.53
2023-01-01T12:44:06.216Z,75.35
2023-01-01T12:49:25.655Z,67.88
2023-01-01T12:54:41.366Z,68.32
2023-01-01T12:59:57.238Z,73.07
2023-01-01T13:05:10.960Z,79.32
2023-01-01T13:10:26.558Z,81.73
2023-01-01T13:15:46.253Z,79.03
2023-01-01T13:21:04.662Z,76.43
2023-01-01T13:26:30.023Z,74.73
2023-01-01T13:31:53.437Z,79.80
2023-01-01T13:37:24.600Z,93.53
2023-01-01T13:43:06.115Z,102.13
2023-01-01T13:54:09.980Z,92.80
2023-01-01T13:59:26.324Z,99.40
2023-01-01T14:05:08.126Z,107.50
2023-01-01T14:10:33.874Z,104.72
2023-01-01T14:16:02.600Z,105.95
2023-01-01T14:21:24.629Z,113.55
2023-01-01T14:26:34.325Z,124.70
2023-01-01T14:31:51.420Z,121.53
2023-01-01T14:36:59.934Z,115.45
2023-01-01T14:42:16.938Z,109.65
2023-01-01T14:47:47.293Z,128.00
2023-01-01T14:53:03.851Z,119.70
2023-01-01T14:58:27.023Z,119.47
2023-01-01T15:03:44.778Z,90.65
2023-01-01T15:09:02.353Z,51.05
2023-01-01T15:14:35.383Z,34.53
2023-01-01T15:19:56.264Z,33.42
2023-01-01T15:25:21.722Z,33.78
2023-01-01T15:30:39.271Z,35.22
2023-01-01T15:35:51.518Z,42.63
2023-01-01T15:41:02.453Z,28.05
2023-01-01T15:46:34.105Z,57.72
2023-01-01T15:51:51.639Z,41.90
2023-01-01T15:57:01.396Z,51.60
2023-01-01T16:02:19.980Z,48.85
2023-01-01T16:07:29.242Z,56.25
2023-01-01T16:12:37.860Z,51.22
2023-01-01T16:17:45.335Z,48.05
2023-01-01T16:22:53.369Z,72.50
2023-01-01T16:27:59.730Z,80.30
2023-01-01T16:33:09.985Z,62.25
2023-01-01T16:38:16.396Z,47.42
2023-01-01T16:43:32.350Z,69.63
2023-01-01T16:48:38.445Z,87.33
2023-01-01T16:53:44.827Z,75.78
2023-01-01T16:58:54.198Z,67.75
2023-01-01T17:04:06.315Z,52.15
2023-01-01T17:09:12.735Z,52.88
2023-01-01T17:14:19.612Z,44.30
2023-01-01T17:19:34.227Z,47.90
2023-01-01T17:24:40.173Z,48.70
2023-01-01T17:29:46.808Z,62.97
2023-01-01T17:34:52.990Z,55.85
2023-01-01T17:40:00.281Z,51.05
2023-01-01T17:45:06.494Z,56.70
2023-01-01T17:50:15.059Z,56.20
2023-01-01T17:55:21.691Z,60.72
2023-01-01T18:05:33.301Z,63.88
2023-01-01T18:10:39.593Z,71.47
2023-01-01T18:15:45.233Z,55.83
2023-01-01T18:20:50.999Z,54.63
2023-01-01T18:25:57.118Z,64.23
2023-01-01T18:31:19.489Z,67.35
2023-01-01T18:36:27.361Z,63.42
2023-01-01T18:41:39.507Z,60.53
2023-01-01T18:46:47.843Z,52.75
2023-01-01T18:52:13.793Z,61.45
2023-01-01T18:57:29.201Z,42.70
2023-01-01T19:02:39.720Z,51.28
2023-01-01T19:07:47.134Z,53.38
2023-01-01T19:12:56.459Z,50.95
2023-01-01T19:18:03.265Z,41.70
2023-01-01T19:23:14.522Z,44.60
2023-01-01T19:28:20.725Z,43.85
2023-01-01T19:33:26.765Z,49.67
2023-01-01T19:38:32.944Z,51.03
2023-01-01T19:48:44.291Z,47.50
2023-01-01T19:53:50.055Z,43.57
2023-01-01T19:58:55.920Z,51.07
2023-01-01T20:04:01.690Z,50.13
2023-01-01T20:09:07.819Z,50.08
2023-01-01T20:14:13.719Z,46.20
2023-01-01T20:19:19.665Z,46.17
2023-01-01T20:24:25.797Z,40.00
2023-01-01T20:29:31.713Z,40.28
2023-01-01T20:34:37.798Z,45.63
2023-01-01T20:39:43.554Z,48.97
2023-01-01T20:44:49.251Z,48.73
2023-01-01T20:49:55.182Z,45.17
2023-01-01T20:55:01.301Z,48.63
2023-01-01T21:00:08.476Z,51.92
2023-01-01T21:05:14.794Z,48.60
2023-01-01T21:10:21.258Z,57.35
2023-01-01T21:20:34.699Z,39.17
2023-01-01T21:25:51.111Z,46.65
2023-01-01T21:30:58.522Z,43.67
2023-01-01T21:36:24.445Z,43.30
2023-01-01T21:41:31.721Z,44.40
2023-01-01T21:46:39.728Z,44.28
2023-01-01T21:51:51.567Z,49.50
2023-01-01T21:57:04.279Z,53.97
2023-01-01T22:02:10.685Z,55.20
2023-01-01T22:13:03.608Z,44.63
2023-01-01T22:18:13.093Z,53.03
2023-01-01T22:23:34.385Z,42.05
2023-01-01T22:28:44.923Z,50.65
2023-01-01T22:33:51.584Z,60.78
2023-01-01T22:38:57.917Z,79.70
2023-01-01T22:44:05.922Z,58.00
2023-01-01T22:49:19.992Z,73.93
2023-01-01T22:54:26.451Z,56.63
2023-01-01T23:04:38.102Z,50.65
2023-01-01T23:09:44.657Z,51.22
2023-01-01T23:15:08.615Z,56.17
2023-01-01T23:20:15.027Z,71.03
2023-01-01T23:25:22.493Z,60.22
2023-01-01T23:30:28.585Z,68.13
2023-01-01T23:35:35.600Z,76.30
2023-01-01T23:40:41.513Z,63.65
2023-01-01T23:45:48.254Z,70.57
2023-01-01T23:50:54.205Z,53.67
2023-01-01T23:56:00.335Z,72.33
